createdAt,value
2023-05-25T12:22:40.407Z,95705.31
2023-05-25T12:25:08.403Z,95710.72
2023-05-25T12:27:35.081Z,95707.06
2023-05-25T12:30:01.686Z,95716.47
2023-05-25T12:32:28.426Z,95707.59
2023-05-25T12:35:08.029Z,95710.16
2023-05-25T12:37:34.655Z,95711.28
2023-05-25T12:40:01.297Z,95708.66
2023-05-25T12:42:30.020Z,95706.50
2023-05-25T12:44:59.012Z,95704.53
2023-05-25T12:47:28.593Z,95706.19
2023-05-25T12:50:12.605Z,95701.50
2023-05-25T12:52:44.308Z,95700.94
2023-05-25T12:55:27.494Z,95692.28
2023-05-25T12:57:59.402Z,95692.88
2023-05-25T13:00:34.018Z,95689.84
2023-05-25T13:03:01.032Z,95697.78
2023-05-25T13:05:33.967Z,95691.72
2023-05-25T13:08:01.848Z,95695.09
2023-05-25T13:10:35.713Z,95684.25
2023-05-25T13:13:02.278Z,95690.44
2023-05-25T13:15:29.089Z,95685.41
2023-05-25T13:17:58.494Z,95680.97
2023-05-25T13:20:26.477Z,95681.09
2023-05-25T13:22:56.705Z,95677.03
2023-05-25T13:25:28.265Z,95676.06
2023-05-25T13:27:57.710Z,95677.72
2023-05-25T13:30:26.447Z,95670.75
2023-05-25T13:32:53.271Z,95667.56
2023-05-25T13:35:37.166Z,95676.56
2023-05-25T13:38:04.032Z,95674.34
2023-05-25T13:40:30.633Z,95669.53
2023-05-25T13:42:57.595Z,95673.19
2023-05-25T13:45:24.554Z,95661.47
2023-05-25T13:47:52.052Z,95674.06
2023-05-25T13:50:18.770Z,95667.06
2023-05-25T13:52:45.406Z,95664.59
2023-05-25T13:55:12.122Z,95661.59
2023-05-25T13:57:38.747Z,95667.69
2023-05-25T14:00:07.587Z,95669.88
2023-05-25T14:02:35.418Z,95662.50
2023-05-25T14:05:03.044Z,95667.38
2023-05-25T14:07:30.043Z,95663.13
2023-05-25T14:09:58.120Z,95662.00
2023-05-25T14:12:25.429Z,95658.94
2023-05-25T14:14:52.003Z,95665.91
2023-05-25T14:17:18.587Z,95653.53
2023-05-25T14:19:45.316Z,95658.91
2023-05-25T14:22:14.373Z,95662.50
2023-05-25T14:24:41.672Z,95657.81
2023-05-25T14:27:08.463Z,95651.72
2023-05-25T14:29:35.052Z,95652.56
2023-05-25T14:32:01.882Z,95663.66
2023-05-25T14:34:29.447Z,95660.63
2023-05-25T14:36:56.181Z,95659.81
2023-05-25T14:39:22.809Z,95664.13
2023-05-25T14:41:49.412Z,95662.94
2023-05-25T14:44:16.479Z,95656.41
2023-05-25T14:46:43.299Z,95662.28
2023-05-25T14:49:10.052Z,95659.91
2023-05-25T14:51:37.710Z,95656.94
2023-05-25T14:54:06.155Z,95654.16
2023-05-25T14:56:32.715Z,95651.81
2023-05-25T14:58:59.284Z,95650.78
2023-05-25T15:01:26.173Z,95650.34
2023-05-25T15:03:53.012Z,95647.44
2023-05-25T15:06:19.803Z,95653.22
2023-05-25T15:08:46.418Z,95663.47
2023-05-25T15:11:13.016Z,95668.44
2023-05-25T15:13:40.847Z,95660.50
2023-05-25T15:16:11.163Z,95666.69
2023-05-25T15:18:37.819Z,95653.66
2023-05-25T15:21:04.439Z,95664.41
2023-05-25T15:23:32.005Z,95665.28
2023-05-25T15:26:03.057Z,95651.81
2023-05-25T15:28:32.956Z,95651.78
2023-05-25T15:31:02.513Z,95651.22
2023-05-25T15:33:44.481Z,95646.94
2023-05-25T15:36:14.903Z,95648.09
2023-05-25T15:38:43.364Z,95647.28
2023-05-25T15:41:11.323Z,95654.72
2023-05-25T15:43:38.002Z,95655.28
2023-05-25T15:46:04.604Z,95649.56
2023-05-25T15:48:31.184Z,95651.34
2023-05-25T15:50:57.752Z,95647.34
2023-05-25T15:53:24.398Z,95649.53
2023-05-25T15:55:51.517Z,95638.06
2023-05-25T15:58:18.367Z,95645.72
2023-05-25T16:00:44.957Z,95634.94
2023-05-25T16:03:11.636Z,95645.22
2023-05-25T16:05:38.300Z,95642.41
2023-05-25T16:08:04.870Z,95631.38
2023-05-25T16:10:31.447Z,95639.34
2023-05-25T16:12:58.047Z,95634.56
2023-05-25T16:15:24.651Z,95636.78
2023-05-25T16:17:51.279Z,95643.47
2023-05-25T16:20:17.923Z,95645.03
2023-05-25T16:22:44.560Z,95650.19
2023-05-25T16:25:11.396Z,95644.88
2023-05-25T16:27:38.022Z,95645.69
2023-05-25T16:30:05.328Z,95652.00
2023-05-25T16:32:32.730Z,95645.47
2023-05-25T16:34:59.513Z,95644.88
2023-05-25T16:37:26.082Z,95646.47
2023-05-25T16:39:52.802Z,95645.78
2023-05-25T16:42:19.790Z,95642.88
2023-05-25T16:44:46.362Z,95644.53
2023-05-25T16:47:12.978Z,95645.41
2023-05-25T16:49:39.543Z,95651.00
2023-05-25T16:52:06.282Z,95651.28
2023-05-25T16:54:32.833Z,95650.66
2023-05-25T16:56:59.452Z,95646.19
2023-05-25T16:59:26.053Z,95645.16
2023-05-25T17:01:52.939Z,95655.69
2023-05-25T17:04:19.682Z,95653.81
2023-05-25T17:06:46.320Z,95644.16
2023-05-25T17:09:13.008Z,95642.84
2023-05-25T17:11:39.594Z,95647.09
2023-05-25T17:14:06.254Z,95655.72
2023-05-25T17:16:32.936Z,95653.25
2023-05-25T17:18:59.547Z,95650.84
2023-05-25T17:21:27.001Z,95659.63
2023-05-25T17:23:53.592Z,95658.31
2023-05-25T17:26:20.261Z,95649.91
2023-05-25T17:28:47.001Z,95649.41
2023-05-25T17:31:13.638Z,95647.03
2023-05-25T17:33:40.322Z,95658.84
2023-05-25T17:36:07.508Z,95651.78
2023-05-25T17:38:36.888Z,95659.41
